createdAt,value
2019-01-23T00:03:01.364Z,-0.34
2019-01-23T00:05:30.289Z,-0.50
2019-01-23T00:07:59.355Z,-0.38
2019-01-23T00:10:28.042Z,-0.32
2019-01-23T00:12:56.700Z,-0.23
2019-01-23T00:15:25.399Z,-0.46
2019-01-23T00:17:54.205Z,-0.52
2019-01-23T00:20:22.845Z,-0.65
2019-01-23T00:22:51.545Z,-0.49
2019-01-23T00:25:20.287Z,-0.52
2019-01-23T00:27:48.921Z,-0.60
2019-01-23T00:30:17.669Z,-0.49
2019-01-23T00:32:46.295Z,-0.42
2019-01-23T00:35:15.043Z,-0.61
2019-01-23T00:37:43.765Z,-0.38
2019-01-23T00:40:12.600Z,-0.30
2019-01-23T00:42:41.293Z,-0.44
2019-01-23T00:45:10.816Z,-0.31
2019-01-23T00:47:39.475Z,-0.29
2019-01-23T00:50:08.841Z,-0.20
2019-01-23T00:52:37.551Z,-0.38
2019-01-23T00:55:08.134Z,-0.34
2019-01-23T00:57:36.839Z,-0.28
2019-01-23T01:00:46.206Z,-0.45
2019-01-23T01:03:14.926Z,-0.27
2019-01-23T01:05:43.652Z,-0.12
2019-01-23T01:08:31.499Z,-0.36
2019-01-23T01:11:00.204Z,-0.19
2019-01-23T01:13:28.937Z,-0.35
2019-01-23T01:15:57.631Z,-0.22
2019-01-23T01:18:26.344Z,-0.29
2019-01-23T01:20:55.053Z,-0.26
2019-01-23T01:23:23.745Z,-0.23
2019-01-23T01:25:52.381Z,-0.27
2019-01-23T01:28:21.065Z,-0.35
2019-01-23T01:30:49.720Z,-0.30
2019-01-23T01:33:18.362Z,-0.04
2019-01-23T01:35:47.136Z,-0.19
2019-01-23T01:38:15.780Z,-0.23
2019-01-23T01:40:44.408Z,-0.09
2019-01-23T01:43:13.154Z,-0.33
2019-01-23T01:45:41.791Z,-0.19
2019-01-23T01:48:10.458Z,-0.21
2019-01-23T01:50:39.079Z,-0.24
2019-01-23T01:53:07.855Z,-0.32
2019-01-23T01:55:36.521Z,-0.32
2019-01-23T01:58:25.967Z,-0.24
2019-01-23T02:00:54.635Z,-0.21
2019-01-23T02:03:23.395Z,-0.22
2019-01-23T02:05:52.045Z,-0.18
2019-01-23T02:08:20.743Z,-0.23
2019-01-23T02:10:49.436Z,-0.27
2019-01-23T02:13:18.141Z,-0.38
2019-01-23T02:15:46.771Z,-0.39
2019-01-23T02:18:15.423Z,-0.15
2019-01-23T02:20:44.175Z,-0.37
2019-01-23T02:23:12.802Z,-0.18
2019-01-23T02:25:41.490Z,-0.09
2019-01-23T02:28:10.137Z,-0.11
2019-01-23T02:30:38.760Z,-0.22
2019-01-23T02:33:07.436Z,-0.25
2019-01-23T02:35:36.044Z,-0.22
2019-01-23T02:38:04.742Z,-0.32
2019-01-23T02:40:33.506Z,-0.38
2019-01-23T02:43:02.170Z,-0.22
2019-01-23T02:45:30.825Z,-0.06
2019-01-23T02:47:59.611Z,0.04
2019-01-23T02:50:28.250Z,-0.02
2019-01-23T02:52:56.955Z,-0.18
2019-01-23T02:55:25.606Z,-0.16
2019-01-23T02:57:54.229Z,-0.08
2019-01-23T03:00:22.870Z,-0.32
2019-01-23T03:02:51.641Z,-0.16
2019-01-23T03:05:21.243Z,-0.02
2019-01-23T03:07:49.891Z,0.06
2019-01-23T03:13:33.532Z,-0.09
2019-01-23T03:16:02.236Z,-0.23
2019-01-23T03:18:30.874Z,-0.12
2019-01-23T03:20:59.502Z,-0.20
2019-01-23T03:23:28.214Z,-0.23
2019-01-23T03:25:56.832Z,-0.25
2019-01-23T03:28:25.547Z,-0.20
2019-01-23T03:30:54.136Z,-0.26
2019-01-23T03:33:22.792Z,-0.31
2019-01-23T03:35:51.416Z,-0.27
2019-01-23T03:38:20.028Z,-0.32
2019-01-23T03:40:48.671Z,-0.20
2019-01-23T03:43:17.392Z,-0.14
2019-01-23T03:45:46.016Z,-0.30
2019-01-23T03:48:14.657Z,-0.23
2019-01-23T03:50:43.294Z,-0.05
2019-01-23T03:53:11.973Z,-0.14
2019-01-23T03:55:40.672Z,-0.18
2019-01-23T03:58:09.359Z,-0.12
2019-01-23T04:00:38.046Z,-0.11
2019-01-23T04:03:06.784Z,-0.22
2019-01-23T04:05:35.385Z,-0.20
2019-01-23T04:08:04.192Z,-0.11
2019-01-23T04:13:46.757Z,-0.21
2019-01-23T04:16:15.479Z,-0.25
2019-01-23T04:18:44.138Z,-0.39
2019-01-23T04:21:12.894Z,-0.38
2019-01-23T04:23:41.571Z,-0.32
2019-01-23T04:26:10.181Z,-0.34
2019-01-23T04:28:38.880Z,-0.28
2019-01-23T04:31:09.001Z,-0.26
2019-01-23T04:33:37.916Z,-0.36
2019-01-23T04:36:06.562Z,-0.20
2019-01-23T04:38:35.169Z,-0.26
2019-01-23T04:41:03.886Z,-0.25
2019-01-23T04:43:32.535Z,-0.17
2019-01-23T04:46:01.154Z,-0.42
2019-01-23T04:51:03.832Z,-0.31
2019-01-23T04:53:36.307Z,-0.27
2019-01-23T04:56:44.722Z,-0.27
2019-01-23T04:59:13.435Z,-0.12
2019-01-23T05:01:42.067Z,-0.07
2019-01-23T05:04:10.822Z,-0.13
2019-01-23T05:06:39.461Z,0.03
2019-01-23T05:09:09.160Z,-0.06
2019-01-23T05:11:37.804Z,-0.09
2019-01-23T05:14:06.560Z,-0.08
2019-01-23T05:16:35.324Z,-0.25
2019-01-23T05:19:04.137Z,-0.13
2019-01-23T05:21:32.784Z,-0.18
2019-01-23T05:24:01.501Z,-0.13
2019-01-23T05:26:30.147Z,-0.13
2019-01-23T05:28:58.761Z,-0.14
2019-01-23T05:31:27.488Z,-0.24
2019-01-23T05:33:56.156Z,-0.23
2019-01-23T05:36:24.791Z,-0.22
2019-01-23T05:38:53.518Z,-0.18
2019-01-23T05:41:22.240Z,-0.05
2019-01-23T05:43:50.895Z,-0.08
2019-01-23T05:46:19.627Z,-0.13
2019-01-23T05:51:35.995Z,-0.05
2019-01-23T05:54:23.842Z,-0.01
2019-01-23T05:56:52.451Z,0.00
2019-01-23T05:59:21.140Z,-0.17
2019-01-23T06:01:49.910Z,0.00
2019-01-23T06:04:18.476Z,-0.06
2019-01-23T06:06:47.197Z,-0.21
2019-01-23T06:09:15.816Z,-0.32
2019-01-23T06:11:44.457Z,-0.18
2019-01-23T06:14:13.095Z,-0.13
2019-01-23T06:16:41.906Z,-0.06
2019-01-23T06:19:10.598Z,-0.03
2019-01-23T06:21:39.273Z,-0.31
2019-01-23T06:24:07.888Z,-0.29
2019-01-23T06:26:36.643Z,-0.19
2019-01-23T06:29:05.486Z,-0.13
2019-01-23T06:31:34.319Z,-0.10
2019-01-23T06:34:02.956Z,-0.23
2019-01-23T06:36:31.597Z,-0.19
2019-01-23T06:39:00.303Z,-0.22
2019-01-23T06:41:29.162Z,-0.15
2019-01-23T06:43:57.774Z,-0.18
2019-01-23T06:46:26.432Z,-0.21
2019-01-23T06:48:55.211Z,-0.19
2019-01-23T06:51:23.899Z,-0.24
2019-01-23T06:53:52.595Z,-0.28
2019-01-23T06:56:21.254Z,-0.25
2019-01-23T06:58:49.905Z,-0.33
2019-01-23T07:01:18.610Z,-0.38
2019-01-23T07:03:47.314Z,-0.29
2019-01-23T07:06:16.159Z,-0.33
2019-01-23T07:08:44.951Z,-0.33
2019-01-23T07:11:13.639Z,-0.27
2019-01-23T07:13:42.382Z,-0.28
2019-01-23T07:16:10.997Z,-0.21
2019-01-23T07:18:39.630Z,-0.46
2019-01-23T07:21:08.267Z,-0.36
2019-01-23T07:23:36.938Z,-0.33
2019-01-23T07:26:05.601Z,-0.35
2019-01-23T07:28:34.269Z,-0.28
2019-01-23T07:31:02.911Z,-0.36
2019-01-23T07:33:31.575Z,-0.34
2019-01-23T07:36:00.235Z,-0.41
2019-01-23T07:38:28.870Z,-0.41
2019-01-23T07:40:57.521Z,-0.47
2019-01-23T07:43:26.299Z,-0.48
2019-01-23T07:45:55.041Z,-0.46
2019-01-23T07:48:23.677Z,-0.48
2019-01-23T07:50:52.293Z,-0.60
2019-01-23T07:53:21.005Z,-0.62
2019-01-23T07:55:49.637Z,-0.60
2019-01-23T07:58:18.316Z,-0.53
2019-01-23T08:00:46.927Z,-0.49
2019-01-23T08:03:15.571Z,-0.48
2019-01-23T08:05:44.268Z,-0.44
2019-01-23T08:11:07.865Z,-0.47
2019-01-23T08:13:36.505Z,-0.44
2019-01-23T08:16:05.291Z,-0.42
2019-01-23T08:18:33.925Z,-0.50
2019-01-23T08:21:02.591Z,-0.53
2019-01-23T08:23:31.227Z,-0.47
2019-01-23T08:25:59.863Z,-0.32
2019-01-23T08:28:28.582Z,-0.28
2019-01-23T08:30:57.263Z,-0.32
2019-01-23T08:33:25.929Z,-0.29
2019-01-23T08:35:54.627Z,-0.38
2019-01-23T08:38:23.332Z,-0.28
2019-01-23T08:40:51.967Z,-0.19
2019-01-23T08:43:20.656Z,-0.10
2019-01-23T08:45:49.292Z,-0.18
2019-01-23T08:48:17.922Z,-0.27
2019-01-23T08:50:46.691Z,-0.17
2019-01-23T08:53:15.412Z,-0.06
2019-01-23T08:55:44.050Z,-0.08
2019-01-23T08:58:12.750Z,0.04
2019-01-23T09:00:45.770Z,-0.14
2019-01-23T09:03:11.773Z,-0.23
2019-01-23T09:05:40.503Z,-0.07
2019-01-23T09:08:09.330Z,-0.05
2019-01-23T09:10:38.002Z,0.08
2019-01-23T09:13:06.693Z,0.16
2019-01-23T09:15:35.351Z,0.12
2019-01-23T09:18:04.269Z,0.31
2019-01-23T09:20:32.908Z,0.18
2019-01-23T09:23:01.538Z,0.15
2019-01-23T09:25:30.357Z,0.30
2019-01-23T09:27:58.972Z,0.23
2019-01-23T09:30:52.566Z,0.19
2019-01-23T09:33:41.756Z,0.06
2019-01-23T09:36:32.017Z,0.14
2019-01-23T09:39:39.170Z,0.30
2019-01-23T09:42:46.269Z,0.46
2019-01-23T09:45:53.375Z,0.44
2019-01-23T09:48:48.419Z,0.46
2019-01-23T09:51:55.539Z,0.25
2019-01-23T09:54:24.300Z,0.37
2019-01-23T09:56:52.906Z,0.42
2019-01-23T09:59:21.603Z,0.22
2019-01-23T10:01:50.357Z,0.30
2019-01-23T10:04:18.940Z,0.37
2019-01-23T10:06:47.603Z,0.43
2019-01-23T10:09:16.214Z,0.44
2019-01-23T10:11:44.962Z,0.45
2019-01-23T10:14:13.581Z,0.55
2019-01-23T10:16:42.214Z,0.56
2019-01-23T10:19:10.858Z,0.57
2019-01-23T10:21:39.627Z,0.71
2019-01-23T10:24:08.288Z,0.76
2019-01-23T10:26:56.198Z,0.79
2019-01-23T10:29:24.903Z,0.83
2019-01-23T10:31:53.551Z,0.68
2019-01-23T10:34:22.157Z,0.69
2019-01-23T10:36:50.793Z,0.64
2019-01-23T10:39:19.429Z,0.70
2019-01-23T10:41:48.096Z,0.68
2019-01-23T10:44:16.709Z,0.57
2019-01-23T10:46:45.413Z,0.55
2019-01-23T10:49:14.030Z,0.62
2019-01-23T10:51:42.722Z,0.63
2019-01-23T10:54:11.413Z,0.54
2019-01-23T10:56:40.229Z,0.34
2019-01-23T10:59:08.930Z,0.38
2019-01-23T11:01:37.605Z,0.54
2019-01-23T11:04:06.362Z,0.47
2019-01-23T11:06:35.062Z,0.62
2019-01-23T11:09:24.931Z,0.42
2019-01-23T11:11:53.572Z,0.61
2019-01-23T11:14:22.222Z,0.62
2019-01-23T11:16:50.904Z,0.66
2019-01-23T11:19:19.570Z,0.68
2019-01-23T11:21:48.198Z,0.68
2019-01-23T11:24:16.850Z,0.72
2019-01-23T11:26:45.692Z,0.80
2019-01-23T11:29:14.303Z,0.83
2019-01-23T11:31:43.107Z,0.87
2019-01-23T11:34:11.831Z,0.81
2019-01-23T11:36:40.605Z,0.79
2019-01-23T11:39:10.227Z,0.82
2019-01-23T11:41:39.001Z,0.27
2019-01-23T11:44:07.683Z,0.59
2019-01-23T11:46:36.294Z,0.73
2019-01-23T11:49:04.996Z,0.62
2019-01-23T11:51:33.735Z,0.66
2019-01-23T11:54:02.431Z,0.41
2019-01-23T11:56:31.148Z,0.60
2019-01-23T11:58:59.773Z,0.56
2019-01-23T12:01:28.466Z,0.62
2019-01-23T12:03:57.121Z,0.57
2019-01-23T12:06:25.752Z,0.53
2019-01-23T12:08:54.491Z,0.62
2019-01-23T12:11:23.216Z,0.72
2019-01-23T12:13:51.983Z,0.79
2019-01-23T12:16:20.615Z,0.83
2019-01-23T12:19:10.061Z,0.82
2019-01-23T12:21:38.676Z,0.69
2019-01-23T12:24:07.319Z,0.55
2019-01-23T12:26:35.948Z,0.58
2019-01-23T12:29:44.390Z,0.35
2019-01-23T12:32:12.993Z,0.45
2019-01-23T12:34:41.721Z,0.57
2019-01-23T12:37:10.340Z,0.53
2019-01-23T12:39:39.116Z,0.61
2019-01-23T12:42:07.815Z,0.57
2019-01-23T12:44:36.556Z,0.43
2019-01-23T12:47:05.248Z,0.44
2019-01-23T12:49:33.913Z,0.39
2019-01-23T12:52:02.700Z,0.26
2019-01-23T12:54:31.474Z,0.31
2019-01-23T12:57:00.180Z,0.31
2019-01-23T12:59:28.798Z,0.24
2019-01-23T13:01:57.500Z,0.23
2019-01-23T13:04:26.199Z,0.26
2019-01-23T13:06:54.838Z,0.32
2019-01-23T13:09:23.476Z,0.20
2019-01-23T13:11:52.164Z,0.28
2019-01-23T13:14:20.789Z,0.44
2019-01-23T13:19:47.244Z,0.36
2019-01-23T13:22:15.846Z,0.50
2019-01-23T13:25:04.151Z,0.41
2019-01-23T13:27:32.774Z,0.56
2019-01-23T13:30:01.427Z,0.42
2019-01-23T13:32:30.028Z,0.45
2019-01-23T13:34:58.679Z,0.46
2019-01-23T13:37:27.296Z,0.38
2019-01-23T13:39:55.950Z,0.15
2019-01-23T13:42:24.595Z,0.28
2019-01-23T13:44:53.330Z,0.25
2019-01-23T13:47:22.084Z,0.28
2019-01-23T13:49:50.801Z,0.40
2019-01-23T13:52:19.619Z,0.34
2019-01-23T13:54:48.262Z,0.41
2019-01-23T13:57:16.936Z,0.20
2019-01-23T13:59:45.583Z,0.36
2019-01-23T14:02:14.201Z,0.37
2019-01-23T14:04:42.919Z,0.46
2019-01-23T14:07:11.571Z,0.44
2019-01-23T14:09:40.204Z,0.40
2019-01-23T14:12:09.002Z,0.51
2019-01-23T14:14:37.649Z,0.46
2019-01-23T14:17:06.384Z,0.46
2019-01-23T14:19:35.015Z,0.44
2019-01-23T14:22:03.693Z,0.43
2019-01-23T14:24:32.316Z,0.41
2019-01-23T14:27:01.304Z,0.38
2019-01-23T14:29:30.063Z,0.32
2019-01-23T14:32:03.236Z,0.31
2019-01-23T14:34:29.161Z,0.35
2019-01-23T14:36:57.866Z,0.40
2019-01-23T14:39:26.515Z,0.39
2019-01-23T14:41:55.172Z,0.46
2019-01-23T14:44:23.785Z,0.28
2019-01-23T14:46:54.525Z,0.25
2019-01-23T14:49:23.282Z,0.25
2019-01-23T14:51:54.811Z,0.25
2019-01-23T14:54:23.479Z,0.25
2019-01-23T14:56:52.126Z,0.27
2019-01-23T14:59:40.047Z,0.22
2019-01-23T15:02:10.363Z,0.15
2019-01-23T15:04:39.553Z,0.17
2019-01-23T15:07:08.201Z,0.27
2019-01-23T15:09:36.998Z,0.36
2019-01-23T15:12:05.910Z,0.24
2019-01-23T15:14:34.574Z,0.33
2019-01-23T15:17:03.265Z,0.25
2019-01-23T15:19:51.111Z,0.25
2019-01-23T15:22:19.758Z,0.24
2019-01-23T15:24:48.767Z,0.32
2019-01-23T15:27:17.474Z,0.33
2019-01-23T15:29:46.188Z,0.20
2019-01-23T15:32:17.343Z,0.20
2019-01-23T15:34:45.886Z,0.16
2019-01-23T15:37:14.638Z,0.19
2019-01-23T15:39:43.316Z,0.31
2019-01-23T15:42:11.975Z,0.27
2019-01-23T15:44:40.626Z,0.19
2019-01-23T15:47:09.362Z,0.20
2019-01-23T15:49:37.981Z,0.06
2019-01-23T15:52:06.605Z,0.07
2019-01-23T15:54:35.310Z,0.10
2019-01-23T15:57:03.955Z,0.07
2019-01-23T15:59:32.595Z,0.07
2019-01-23T16:02:01.304Z,0.16
2019-01-23T16:04:29.933Z,0.20
2019-01-23T16:06:58.661Z,0.23
2019-01-23T16:09:27.377Z,0.10
2019-01-23T16:11:55.996Z,0.08
2019-01-23T16:14:26.560Z,0.09
2019-01-23T16:16:55.168Z,0.11
2019-01-23T16:19:23.875Z,0.02
2019-01-23T16:21:52.484Z,0.06
2019-01-23T16:24:21.673Z,0.02
2019-01-23T16:27:10.110Z,0.14
2019-01-23T16:29:39.988Z,0.17
2019-01-23T16:32:09.754Z,0.16
2019-01-23T16:37:30.989Z,0.05
2019-01-23T16:40:00.211Z,0.19
2019-01-23T16:42:30.291Z,0.13
2019-01-23T16:50:51.825Z,0.12
2019-01-23T16:53:23.263Z,0.13
2019-01-23T16:55:53.159Z,0.25
2019-01-23T16:58:23.341Z,0.26
2019-01-23T17:04:21.820Z,0.20
2019-01-23T17:09:46.125Z,0.25
2019-01-23T17:12:14.785Z,0.27
2019-01-23T17:14:43.424Z,0.24
2019-01-23T17:17:12.109Z,0.32
2019-01-23T17:19:40.807Z,0.39
2019-01-23T17:22:11.308Z,0.45
2019-01-23T17:24:39.958Z,0.34
2019-01-23T17:27:08.842Z,0.34
2019-01-23T17:29:38.645Z,0.39
2019-01-23T17:32:07.822Z,0.46
2019-01-23T17:34:36.672Z,0.40
2019-01-23T17:45:58.098Z,0.25
2019-01-23T17:48:27.064Z,0.13
2019-01-23T17:50:56.247Z,0.02
2019-01-23T17:53:25.556Z,0.12
2019-01-23T17:55:54.461Z,0.21
2019-01-23T17:58:23.201Z,0.17
2019-01-23T18:01:11.973Z,0.23
2019-01-23T18:03:43.015Z,0.25
2019-01-23T18:06:11.834Z,0.25
2019-01-23T18:08:40.762Z,0.29
2019-01-23T18:11:09.711Z,0.27
2019-01-23T18:13:58.145Z,0.31
2019-01-23T18:16:26.907Z,0.31
2019-01-23T18:19:22.485Z,0.33
2019-01-23T18:21:54.882Z,0.39
2019-01-23T18:24:42.929Z,0.31
2019-01-23T18:29:57.522Z,0.41
2019-01-23T18:32:28.980Z,0.20
2019-01-23T18:35:20.419Z,0.25
2019-01-23T18:38:28.126Z,0.26
2019-01-23T18:41:35.291Z,0.15
2019-01-23T18:48:01.380Z,0.10
2019-01-23T18:51:08.600Z,0.15
2019-01-23T18:59:38.113Z,0.03
2019-01-23T19:05:44.805Z,-0.02
2019-01-23T19:14:34.361Z,0.15
2019-01-23T19:17:03.707Z,0.15
2019-01-23T19:19:32.717Z,0.14
2019-01-23T19:22:01.700Z,0.19
2019-01-23T19:24:30.519Z,0.19
2019-01-23T19:26:59.525Z,0.24
2019-01-23T19:29:28.311Z,0.26
2019-01-23T19:32:16.337Z,0.27
2019-01-23T19:37:48.553Z,0.10
2019-01-23T19:40:57.248Z,0.13
2019-01-23T19:43:25.989Z,0.16
2019-01-23T19:45:55.658Z,0.14
2019-01-23T19:48:24.469Z,0.21
2019-01-23T19:51:10.577Z,0.21
2019-01-23T19:53:39.402Z,0.34
2019-01-23T19:56:08.785Z,0.32
2019-01-23T19:58:39.361Z,0.23
2019-01-23T20:01:27.419Z,0.34
2019-01-23T20:03:57.032Z,0.35
2019-01-23T20:06:26.003Z,0.27
2019-01-23T20:14:19.228Z,0.21
2019-01-23T20:16:50.053Z,0.12
2019-01-23T20:19:38.246Z,0.11
2019-01-23T20:22:07.369Z,0.26
2019-01-23T20:24:55.377Z,0.26
2019-01-23T20:27:24.395Z,0.17
2019-01-23T20:29:57.411Z,0.31
2019-01-23T20:32:46.899Z,0.44
2019-01-23T20:35:45.420Z,0.21
2019-01-23T20:38:14.284Z,0.01
2019-01-23T20:41:02.969Z,0.17
2019-01-23T20:43:31.951Z,0.26
2019-01-23T20:46:01.258Z,0.22
2019-01-23T20:48:49.146Z,0.20
2019-01-23T20:51:20.817Z,-0.03
2019-01-23T20:59:44.951Z,0.05
2019-01-23T21:02:14.613Z,0.12
2019-01-23T21:05:04.145Z,0.09
2019-01-23T21:07:53.567Z,-0.01
2019-01-23T21:12:50.267Z,0.14
2019-01-23T21:15:21.861Z,0.06
2019-01-23T21:17:51.584Z,0.08
2019-01-23T21:23:38.312Z,0.05
2019-01-23T21:26:07.330Z,-0.04
2019-01-23T21:31:45.225Z,-0.44
2019-01-23T21:37:25.458Z,-0.33
2019-01-23T21:39:54.168Z,-0.43
2019-01-23T21:42:25.424Z,-0.30
2019-01-23T21:45:14.250Z,-0.38
2019-01-23T21:47:44.739Z,-0.38
2019-01-23T21:50:21.233Z,-0.35
2019-01-23T21:52:50.765Z,-0.38
2019-01-23T21:58:22.582Z,-0.31
2019-01-23T22:01:12.038Z,-0.42
2019-01-23T22:04:20.561Z,-0.21
2019-01-23T22:06:49.402Z,-0.27
2019-01-23T22:09:37.958Z,-0.35
2019-01-23T22:15:12.208Z,-0.16
2019-01-23T22:17:40.898Z,-0.05
2019-01-23T22:20:13.063Z,-0.03
2019-01-23T22:22:43.549Z,0.13
2019-01-23T22:27:53.237Z,-0.12
2019-01-23T22:30:41.491Z,-0.16
2019-01-23T22:36:02.816Z,0.03
2019-01-23T22:38:31.424Z,0.15
2019-01-23T22:41:00.148Z,0.20
2019-01-23T22:43:28.776Z,0.20
2019-01-23T22:45:57.420Z,0.39
2019-01-23T22:48:26.152Z,0.52
2019-01-23T22:50:54.801Z,0.43
2019-01-23T22:53:23.525Z,0.36
2019-01-23T22:55:52.154Z,0.24
2019-01-23T22:58:20.764Z,0.17
2019-01-23T23:01:27.875Z,0.16
2019-01-23T23:04:02.933Z,0.08
2019-01-23T23:06:27.413Z,-0.07
2019-01-23T23:08:56.144Z,-0.16
2019-01-23T23:11:24.850Z,-0.14
2019-01-23T23:13:53.498Z,-0.17
2019-01-23T23:16:22.248Z,-0.17
2019-01-23T23:19:10.083Z,-0.16
2019-01-23T23:21:38.734Z,-0.11
2019-01-23T23:24:07.428Z,-0.21
2019-01-23T23:26:36.142Z,-0.16
2019-01-23T23:29:04.953Z,-0.14
2019-01-23T23:31:33.695Z,-0.08
2019-01-23T23:34:02.409Z,-0.06
2019-01-23T23:36:31.039Z,-0.10
2019-01-23T23:38:59.678Z,-0.07
2019-01-23T23:41:28.334Z,-0.11
2019-01-23T23:43:57.010Z,-0.15
2019-01-23T23:46:25.712Z,-0.15
2019-01-23T23:48:54.471Z,-0.12
2019-01-23T23:51:23.097Z,-0.18
2019-01-23T23:53:51.751Z,-0.15
2019-01-23T23:56:20.465Z,-0.19
2019-01-23T23:58:49.126Z,-0.24
